Time;durP1;ratioP1;P1;durP2;ratioP2;P2;SDS_P1;SDS_P2;PMS_P1;PMS_P2;Temp;Humidity;BMP_temperature;BMP_pressure;BME280_temperature;BME280_humidity;BME280_pressure;Samples;Min_cycle;Max_cycle;Signal;HPM_P1;HPM_P2
2021/01/03 00:01:42;;;;;;;36.80;19.88;;;2.60;94.50;;;;;;5015497;28;20380;-78
2021/01/03 00:04:07;;;;;;;34.58;19.60;;;2.70;94.60;;;;;;5015496;28;20030;-79
2021/01/03 00:06:33;;;;;;;36.88;19.83;;;2.60;94.50;;;;;;5015392;28;20026;-79
2021/01/03 00:08:59;;;;;;;30.92;18.58;;;2.60;94.60;;;;;;5014030;28;20018;-78
2021/01/03 00:11:24;;;;;;;35.17;20.58;;;2.60;94.50;;;;;;5015025;28;20426;-78
2021/01/03 00:13:50;;;;;;;32.70;19.15;;;2.60;94.50;;;;;;5013843;28;20068;-78
2021/01/03 00:16:16;;;;;;;40.83;22.75;;;2.60;94.50;;;;;;5015247;28;20032;-78
2021/01/03 00:18:41;;;;;;;42.80;22.95;;;2.50;94.50;;;;;;5015292;28;20108;-78
2021/01/03 00:21:10;;;;;;;55.60;29.77;;;2.50;94.40;;;;;;5013718;28;20025;-75
2021/01/03 00:23:36;;;;;;;57.88;28.33;;;2.50;94.40;;;;;;5014847;28;20033;-78
2021/01/03 00:26:02;;;;;;;55.90;28.05;;;2.40;94.30;;;;;;5015090;28;20037;-79
2021/01/03 00:28:28;;;;;;;48.65;25.40;;;2.40;94.30;;;;;;5015036;28;20076;-79
2021/01/03 00:30:53;;;;;;;57.42;29.30;;;2.30;94.20;;;;;;5013950;28;20053;-79
2021/01/03 00:33:19;;;;;;;54.58;29.15;;;2.30;94.20;;;;;;5015317;28;20350;-79
2021/01/03 00:35:45;;;;;;;41.45;22.90;;;2.20;94.20;;;;;;5015115;28;20057;-79
2021/01/03 00:38:11;;;;;;;54.00;28.25;;;2.20;94.30;;;;;;5015255;28;20041;-78
2021/01/03 00:40:38;;;;;;;38.30;22.58;;;2.20;94.40;;;;;;5013417;28;20068;-78
2021/01/03 00:43:05;;;;;;;41.63;22.13;;;2.20;94.50;;;;;;5013395;28;20033;-78
2021/01/03 00:45:32;;;;;;;44.10;22.80;;;2.20;94.60;;;;;;5014589;28;20041;-78
2021/01/03 00:47:58;;;;;;;46.03;23.60;;;2.20;94.70;;;;;;5014885;28;20034;-78
2021/01/03 00:50:24;;;;;;;51.42;25.60;;;2.20;94.80;;;;;;5014473;28;20029;-78
2021/01/03 00:52:50;;;;;;;51.95;26.77;;;2.30;94.80;;;;;;5014428;28;20045;-78
2021/01/03 00:55:16;;;;;;;49.58;26.13;;;2.30;94.80;;;;;;5014337;28;20519;-78
2021/01/03 00:57:42;;;;;;;54.55;27.38;;;2.30;94.90;;;;;;5014109;28;20025;-78
2021/01/03 01:00:13;;;;;;;49.88;25.65;;;2.30;94.90;;;;;;5014145;28;20126;-79
2021/01/03 01:02:39;;;;;;;66.50;33.47;;;2.30;95.00;;;;;;5014197;28;20097;-78
2021/01/03 01:05:06;;;;;;;54.72;27.52;;;2.30;95.00;;;;;;5014256;28;20417;-78
2021/01/03 01:07:31;;;;;;;56.70;31.13;;;2.30;94.90;;;;;;5014291;28;20106;-78
2021/01/03 01:09:57;;;;;;;55.22;27.85;;;2.30;94.80;;;;;;5013978;28;20100;-78
2021/01/03 01:12:23;;;;;;;80.35;35.83;;;2.20;94.80;;;;;;5013893;28;20021;-78
2021/01/03 01:14:49;;;;;;;59.38;30.65;;;2.20;94.70;;;;;;5014045;28;20040;-78
2021/01/03 01:17:15;;;;;;;59.50;30.23;;;2.10;94.70;;;;;;5014280;28;20030;-80
2021/01/03 01:19:40;;;;;;;64.95;33.38;;;2.10;94.80;;;;;;5013062;28;20037;-80
2021/01/03 01:22:06;;;;;;;59.60;33.10;;;2.10;94.80;;;;;;5014670;28;20037;-80
2021/01/03 01:24:32;;;;;;;80.18;41.92;;;2.10;94.80;;;;;;5013109;28;20472;-80
2021/01/03 01:26:57;;;;;;;84.43;42.75;;;2.00;94.80;;;;;;5014083;28;20044;-80
2021/01/03 01:29:23;;;;;;;83.88;40.60;;;2.00;94.80;;;;;;5014120;28;20473;-80
2021/01/03 01:31:49;;;;;;;70.50;34.47;;;2.00;94.80;;;;;;5014079;28;20029;-79
2021/01/03 01:34:15;;;;;;;73.68;35.58;;;2.00;94.90;;;;;;5013956;28;20030;-80
2021/01/03 01:36:40;;;;;;;64.63;30.75;;;2.00;95.10;;;;;;5014155;28;20033;-80
2021/01/03 01:39:06;;;;;;;56.53;28.55;;;2.00;95.10;;;;;;5011989;28;20073;-80
2021/01/03 01:41:32;;;;;;;55.38;28.23;;;2.00;95.30;;;;;;5012652;28;20036;-80
2021/01/03 01:43:57;;;;;;;54.38;27.80;;;2.00;95.40;;;;;;5012082;28;20026;-79
2021/01/03 01:46:35;;;;;;;56.40;28.95;;;2.10;95.50;;;;;;5013153;28;20081;-78
2021/01/03 01:49:06;;;;;;;54.40;27.75;;;2.10;95.60;;;;;;5013253;28;20018;-78
2021/01/03 01:51:37;;;;;;;58.90;27.85;;;2.10;95.70;;;;;;5011768;28;20488;-78
2021/01/03 01:54:20;;;;;;;62.60;29.33;;;2.20;95.70;;;;;;5012054;28;20030;-78
2021/01/03 01:56:54;;;;;;;62.88;29.08;;;2.20;95.80;;;;;;5012887;28;20021;-79
2021/01/03 01:59:20;;;;;;;58.28;28.23;;;2.30;96.10;;;;;;5011726;28;20030;-78
2021/01/03 02:02:02;;;;;;;58.67;27.75;;;2.30;96.30;;;;;;5012949;28;20026;-78
2021/01/03 02:04:49;;;;;;;55.33;27.48;;;2.40;96.50;;;;;;5012646;28;20054;-78
2021/01/03 02:07:35;;;;;;;52.83;25.50;;;2.50;96.60;;;;;;5011658;28;20049;-78
2021/01/03 02:10:12;;;;;;;50.15;24.02;;;2.60;96.60;;;;;;5012759;28;20018;-78
2021/01/03 02:12:43;;;;;;;47.30;25.13;;;2.70;96.70;;;;;;5012784;28;20021;-78
2021/01/03 02:15:15;;;;;;;40.72;22.95;;;2.70;96.70;;;;;;5012789;28;20026;-78
2021/01/03 02:17:44;;;;;;;50.17;23.88;;;2.80;96.70;;;;;;5011419;28;20033;-78
2021/01/03 02:20:12;;;;;;;57.05;24.35;;;2.90;96.70;;;;;;5012676;28;20108;-78
2021/01/03 02:22:57;;;;;;;61.03;26.92;;;2.90;96.60;;;;;;5012577;28;20105;-79
2021/01/03 02:25:23;;;;;;;105.53;27.15;;;3.00;96.60;;;;;;5012841;28;20018;-79
2021/01/03 02:28:11;;;;;;;90.75;26.48;;;3.00;96.50;;;;;;5011354;28;20018;-79
2021/01/03 02:30:38;;;;;;;72.00;25.00;;;3.00;96.50;;;;;;5012337;28;20389;-79
2021/01/03 02:33:36;;;;;;;61.47;23.17;;;3.00;96.40;;;;;;5012547;28;20018;-79
2021/01/03 02:36:07;;;;;;;90.57;22.98;;;3.00;96.40;;;;;;4980560;28;20030;-79
2021/01/03 02:38:38;;;;;;;93.32;23.42;;;3.00;96.40;;;;;;5012630;28;20053;-79
2021/01/03 02:41:04;;;;;;;78.85;22.02;;;3.00;96.30;;;;;;5012796;28;20018;-79
2021/01/03 02:43:30;;;;;;;76.80;22.58;;;3.00;96.30;;;;;;5012348;28;20423;-79
2021/01/03 02:45:56;;;;;;;72.57;22.13;;;3.00;96.20;;;;;;5012641;28;20050;-79
2021/01/03 02:48:23;;;;;;;51.50;20.60;;;2.90;96.10;;;;;;5012780;28;20030;-79
2021/01/03 02:50:49;;;;;;;107.00;23.00;;;2.90;96.10;;;;;;5012690;28;20776;-79
2021/01/03 02:53:17;;;;;;;96.15;22.48;;;2.90;96.10;;;;;;5012497;28;20039;-79
2021/01/03 02:55:42;;;;;;;56.67;20.73;;;2.90;96.10;;;;;;5011028;28;20022;-79
2021/01/03 02:58:08;;;;;;;71.32;21.60;;;2.90;96.10;;;;;;5011141;28;20108;-79
2021/01/03 03:00:37;;;;;;;94.00;21.50;;;2.90;96.10;;;;;;5012089;28;20038;-79
2021/01/03 03:03:06;;;;;;;50.05;18.65;;;2.90;96.00;;;;;;5012142;28;20160;-79
2021/01/03 03:05:31;;;;;;;61.22;19.05;;;2.80;96.00;;;;;;5012437;28;20033;-80
2021/01/03 03:07:57;;;;;;;52.40;18.30;;;2.80;96.00;;;;;;5012288;28;20876;-79
2021/01/03 03:10:23;;;;;;;51.00;18.52;;;2.80;96.00;;;;;;5012308;28;20408;-78
2021/01/03 03:12:51;;;;;;;46.45;18.20;;;2.80;96.00;;;;;;5010823;28;20033;-78
2021/01/03 03:15:18;;;;;;;35.47;16.92;;;2.70;96.00;;;;;;5012050;28;20038;-79
2021/01/03 03:17:44;;;;;;;45.67;17.08;;;2.70;96.00;;;;;;5010854;28;20034;-79
2021/01/03 03:20:11;;;;;;;41.80;17.00;;;2.70;96.00;;;;;;5012041;28;20106;-78
2021/01/03 03:22:37;;;;;;;100.25;17.83;;;2.70;96.00;;;;;;5012081;28;20050;-79
2021/01/03 03:25:04;;;;;;;35.70;16.27;;;2.70;96.00;;;;;;5012054;28;20026;-78
2021/01/03 03:27:30;;;;;;;33.30;16.20;;;2.70;96.00;;;;;;5012173;28;20026;-79
2021/01/03 03:29:55;;;;;;;56.38;16.50;;;2.70;95.90;;;;;;5011801;28;20022;-78
2021/01/03 03:32:21;;;;;;;30.70;14.23;;;2.60;95.90;;;;;;5012042;28;20076;-79
2021/01/03 03:34:47;;;;;;;53.90;14.82;;;2.60;95.90;;;;;;5012039;28;20396;-79
2021/01/03 03:37:12;;;;;;;38.72;15.15;;;2.60;96.10;;;;;;5012058;28;20030;-79
2021/01/03 03:39:38;;;;;;;56.22;16.40;;;2.60;96.10;;;;;;5011808;28;20026;-79
2021/01/03 03:42:04;;;;;;;65.38;15.90;;;2.60;96.00;;;;;;5012200;28;20032;-78
2021/01/03 03:44:30;;;;;;;33.97;14.80;;;2.60;96.00;;;;;;5011730;28;20030;-78
2021/01/03 03:46:59;;;;;;;104.15;17.92;;;2.50;96.00;;;;;;5011690;28;20088;-78
2021/01/03 03:49:24;;;;;;;33.28;14.52;;;2.50;95.80;;;;;;5011827;28;20030;-78
2021/01/03 03:51:54;;;;;;;38.72;15.45;;;2.50;95.90;;;;;;5010262;28;20484;-78
2021/01/03 03:54:21;;;;;;;60.42;15.00;;;2.50;96.00;;;;;;5011499;28;20022;-78
2021/01/03 03:56:55;;;;;;;39.40;14.40;;;2.50;96.10;;;;;;5011755;28;20045;-78
2021/01/03 03:59:22;;;;;;;38.63;13.52;;;2.50;96.10;;;;;;5011806;28;20473;-78
2021/01/03 04:01:48;;;;;;;39.13;15.25;;;2.50;96.00;;;;;;5011624;28;20469;-78
2021/01/03 04:04:14;;;;;;;38.30;14.68;;;2.50;96.10;;;;;;5013600;28;20025;-78
2021/01/03 04:06:40;;;;;;;28.38;13.70;;;2.50;96.10;;;;;;5015315;28;20037;-78
2021/01/03 04:09:07;;;;;;;34.53;15.38;;;2.50;96.10;;;;;;5015131;28;20025;-78
2021/01/03 04:11:32;;;;;;;35.72;15.60;;;2.50;96.20;;;;;;5015131;28;20018;-79
2021/01/03 04:13:59;;;;;;;42.72;14.50;;;2.50;96.20;;;;;;5015038;28;20488;-79
2021/01/03 04:16:25;;;;;;;50.13;17.00;;;2.50;96.20;;;;;;5015241;28;20362;-80
2021/01/03 04:18:51;;;;;;;35.83;14.75;;;2.50;96.10;;;;;;5014895;28;20088;-79
2021/01/03 04:21:17;;;;;;;45.63;16.65;;;2.50;96.10;;;;;;5014966;28;20037;-79
2021/01/03 04:23:42;;;;;;;34.45;14.82;;;2.50;96.20;;;;;;5013588;28;20380;-79
2021/01/03 04:26:18;;;;;;;81.70;16.58;;;2.50;96.20;;;;;;5014769;28;20045;-80
2021/01/03 04:28:44;;;;;;;46.20;16.05;;;2.50;96.10;;;;;;5015154;28;20464;-79
2021/01/03 04:31:09;;;;;;;139.73;19.80;;;2.50;96.20;;;;;;5014695;28;20022;-78
2021/01/03 04:33:37;;;;;;;44.17;16.83;;;2.50;96.20;;;;;;5014676;28;20483;-79
2021/01/03 04:36:04;;;;;;;30.95;15.23;;;2.50;96.30;;;;;;5014744;28;20472;-79
2021/01/03 04:38:29;;;;;;;44.05;16.65;;;2.50;96.30;;;;;;5014736;28;20041;-80
2021/01/03 04:40:55;;;;;;;116.43;18.38;;;2.50;96.30;;;;;;5014361;28;20029;-79
2021/01/03 04:43:21;;;;;;;41.00;17.90;;;2.60;96.40;;;;;;5014419;28;20026;-78
2021/01/03 04:45:57;;;;;;;192.77;25.95;;;2.60;96.40;;;;;;5014173;28;20160;-78
2021/01/03 04:48:30;;;;;;;47.83;19.33;;;2.60;96.30;;;;;;5014446;28;20029;-78
2021/01/03 04:51:23;;;;;;;43.17;19.58;;;2.60;96.40;;;;;;5014518;28;20030;-79
2021/01/03 04:54:17;;;;;;;67.60;24.30;;;2.60;96.40;;;;;;5013357;28;20053;-79
2021/01/03 04:56:43;;;;;;;158.15;36.00;;;2.60;96.40;;;;;;5014109;28;20486;-79
2021/01/03 04:59:14;;;;;;;193.13;35.40;;;2.60;96.40;;;;;;5013986;28;20109;-79
2021/01/03 05:02:17;;;;;;;123.40;38.60;;;2.60;96.10;;;;;;5014195;28;20018;-78
2021/01/03 05:04:47;;;;;;;271.90;45.05;;;2.60;96.20;;;;;;5013771;28;20439;-78
2021/01/03 05:07:28;;;;;;;625.17;67.50;;;2.50;96.00;;;;;;5013764;28;20026;-79
2021/01/03 05:10:20;;;;;;;325.45;45.63;;;2.50;96.00;;;;;;5012712;28;20380;-79
2021/01/03 05:13:15;;;;;;;96.90;31.65;;;2.50;96.10;;;;;;5013923;28;20072;-78
2021/01/03 05:15:40;;;;;;;120.65;31.95;;;2.40;95.90;;;;;;4972873;28;20095;-79
2021/01/03 05:18:07;;;;;;;111.75;28.42;;;2.40;95.80;;;;;;5013911;28;20018;-79
2021/01/03 05:20:32;;;;;;;189.85;35.50;;;2.30;95.80;;;;;;5012562;28;20025;-78
2021/01/03 05:23:19;;;;;;;246.57;37.40;;;2.20;95.70;;;;;;5013657;28;20460;-78
2021/01/03 05:25:47;;;;;;;55.08;21.80;;;2.20;95.70;;;;;;5013663;28;20025;-78
2021/01/03 05:28:37;;;;;;;115.72;24.58;;;2.20;95.70;;;;;;5013436;28;20526;-78
2021/01/03 05:31:11;;;;;;;223.63;29.67;;;2.10;95.80;;;;;;5013481;28;20030;-78
2021/01/03 05:33:36;;;;;;;439.63;46.63;;;2.10;95.70;;;;;;5012330;28;20036;-78
2021/01/03 05:36:03;;;;;;;307.33;36.70;;;2.00;95.40;;;;;;5013746;28;20057;-78
2021/01/03 05:38:37;;;;;;;589.35;60.35;;;2.00;95.40;;;;;;5013605;28;20054;-78
2021/01/03 05:41:44;;;;;;;428.77;43.05;;;1.90;95.30;;;;;;5013064;28;20088;-78
2021/01/03 05:44:14;;;;;;;509.02;47.17;;;1.80;95.40;;;;;;4985373;28;20041;-78
2021/01/03 05:46:45;;;;;;;412.73;39.20;;;1.70;95.30;;;;;;5012778;28;20054;-78
2021/01/03 05:49:14;;;;;;;386.15;44.08;;;1.70;95.20;;;;;;5013205;28;20018;-79
2021/01/03 05:51:44;;;;;;;309.52;38.50;;;1.60;95.40;;;;;;5013171;28;20026;-79
2021/01/03 05:54:23;;;;;;;212.27;31.13;;;1.60;95.70;;;;;;5012979;28;20527;-78
2021/01/03 05:56:49;;;;;;;87.60;25.85;;;1.60;95.80;;;;;;5017968;28;20018;-80
2021/01/03 05:59:29;;;;;;;389.35;59.60;;;1.50;95.80;;;;;;5013007;28;20018;-80
2021/01/03 06:02:06;;;;;;;217.27;36.72;;;1.50;96.00;;;;;;5013323;28;20032;-80
2021/01/03 06:04:32;;;;;;;281.38;38.30;;;1.50;95.80;;;;;;5013006;28;20108;-79
2021/01/03 06:07:19;;;;;;;229.50;40.25;;;1.50;95.80;;;;;;5011626;28;20109;-79
2021/01/03 06:09:45;;;;;;;118.65;38.13;;;1.50;95.90;;;;;;5012804;28;20037;-79
2021/01/03 06:12:31;;;;;;;629.70;75.78;;;1.50;96.10;;;;;;5012455;28;20018;-79
2021/01/03 06:15:05;;;;;;;108.40;38.08;;;1.60;96.10;;;;;;5011488;28;20488;-80
2021/01/03 06:17:43;;;;;;;180.25;38.63;;;1.60;96.30;;;;;;5012726;28;20103;-79
2021/01/03 06:20:23;;;;;;;73.43;31.50;;;1.60;96.40;;;;;;5012948;28;20097;-80
2021/01/03 06:23:07;;;;;;;101.05;43.13;;;1.60;96.30;;;;;;5012196;28;20022;-81
2021/01/03 06:25:55;;;;;;;90.70;39.08;;;1.70;96.60;;;;;;5012193;28;20549;-80
2021/01/03 06:28:21;;;;;;;72.05;32.42;;;1.80;96.70;;;;;;5012863;28;20018;-80
2021/01/03 06:31:23;;;;;;;67.95;29.95;;;1.90;96.80;;;;;;5012708;28;20145;-80
2021/01/03 06:34:08;;;;;;;68.82;27.77;;;2.00;97.00;;;;;;5012572;28;20092;-80
2021/01/03 06:37:04;;;;;;;46.80;21.70;;;2.00;96.60;;;;;;5013259;28;20030;-81
2021/01/03 06:39:30;;;;;;;41.45;19.17;;;2.00;96.70;;;;;;5011139;28;20495;-81
2021/01/03 06:42:02;;;;;;;39.22;19.27;;;2.10;96.80;;;;;;5012309;28;20022;-81
2021/01/03 06:44:52;;;;;;;35.38;18.70;;;2.10;96.80;;;;;;5011056;28;20096;-81
2021/01/03 06:48:02;;;;;;;37.47;19.90;;;2.20;96.90;;;;;;5012315;28;20054;-81
2021/01/03 06:50:42;;;;;;;41.90;19.70;;;2.20;96.80;;;;;;5012344;28;20041;-79
2021/01/03 06:53:38;;;;;;;43.70;19.75;;;2.30;96.90;;;;;;5012110;28;20428;-79
2021/01/03 06:56:33;;;;;;;37.40;17.45;;;2.30;96.90;;;;;;5012085;28;20417;-80
2021/01/03 06:59:23;;;;;;;41.65;19.27;;;2.40;96.80;;;;;;5012325;28;20103;-80
2021/01/03 07:01:50;;;;;;;68.15;20.92;;;2.40;96.60;;;;;;5010707;28;20033;-80
2021/01/03 07:04:24;;;;;;;73.00;23.00;;;2.40;96.40;;;;;;5012058;28;20038;-80
2021/01/03 07:06:52;;;;;;;50.90;22.05;;;2.30;96.10;;;;;;5012308;28;20422;-80
2021/01/03 07:09:17;;;;;;;57.80;24.48;;;2.20;96.10;;;;;;5012299;28;20025;-80
2021/01/03 07:11:43;;;;;;;57.10;22.05;;;2.30;96.40;;;;;;5012261;28;20022;-80
2021/01/03 07:14:21;;;;;;;71.82;26.67;;;2.30;96.40;;;;;;5011091;28;20049;-79
2021/01/03 07:16:54;;;;;;;89.40;29.02;;;2.30;96.30;;;;;;5011302;28;20025;-80
2021/01/03 07:19:50;;;;;;;119.25;33.40;;;2.30;96.20;;;;;;5011714;28;20557;-79
2021/01/03 07:22:21;;;;;;;75.88;29.83;;;2.20;96.10;;;;;;5011961;28;20056;-80
2021/01/03 07:24:50;;;;;;;61.15;25.05;;;2.20;96.20;;;;;;5010572;28;20026;-80
2021/01/03 07:27:24;;;;;;;86.43;28.00;;;2.20;96.30;;;;;;5010595;28;20033;-79
2021/01/03 07:29:56;;;;;;;74.90;28.40;;;2.20;96.20;;;;;;5011567;28;20022;-81
2021/01/03 07:32:57;;;;;;;109.43;35.63;;;2.10;96.20;;;;;;5012021;28;20029;-81
2021/01/03 07:35:23;;;;;;;92.63;30.13;;;2.10;96.20;;;;;;4971373;28;20030;-80
2021/01/03 07:37:54;;;;;;;103.30;33.00;;;2.10;96.30;;;;;;5013341;28;20030;-81
2021/01/03 07:40:24;;;;;;;121.82;43.85;;;2.20;96.20;;;;;;5015358;28;20476;-79
2021/01/03 07:42:53;;;;;;;80.63;36.67;;;2.20;96.40;;;;;;5016293;28;20104;-79
2021/01/03 07:45:34;;;;;;;59.90;29.15;;;2.20;96.60;;;;;;5016581;28;20061;-80
2021/01/03 07:48:00;;;;;;;59.33;27.60;;;2.30;96.60;;;;;;5015565;28;20073;-81
2021/01/03 07:50:39;;;;;;;91.30;36.35;;;2.40;96.90;;;;;;5015320;28;20044;-81
2021/01/03 07:53:23;;;;;;;103.63;41.30;;;2.50;97.10;;;;;;5015232;28;20416;-79
2021/01/03 07:55:49;;;;;;;69.50;29.33;;;2.70;97.20;;;;;;5014201;28;20032;-81
2021/01/03 07:58:23;;;;;;;67.50;28.95;;;2.70;97.10;;;;;;5013596;28;20030;-80
2021/01/03 08:00:59;;;;;;;65.03;26.48;;;2.80;96.80;;;;;;5015169;28;20029;-81
2021/01/03 08:03:26;;;;;;;62.90;28.48;;;2.70;96.40;;;;;;5015380;28;20033;-79
2021/01/03 08:05:52;;;;;;;56.67;26.05;;;2.70;96.30;;;;;;5014909;28;20469;-80
2021/01/03 08:08:28;;;;;;;68.20;28.83;;;2.70;96.00;;;;;;5015213;28;20028;-80
2021/01/03 08:11:25;;;;;;;83.72;35.35;;;2.60;96.00;;;;;;5015241;28;20022;-79
2021/01/03 08:13:56;;;;;;;83.88;33.13;;;2.60;95.90;;;;;;5015332;28;20105;-80
2021/01/03 08:16:24;;;;;;;100.72;35.63;;;2.60;96.00;;;;;;5014599;28;20029;-78
2021/01/03 08:19:05;;;;;;;105.28;37.17;;;2.50;95.50;;;;;;5013129;28;20026;-75
2021/01/03 08:21:33;;;;;;;135.70;43.80;;;2.40;95.40;;;;;;5014480;28;20412;-77
2021/01/03 08:24:08;;;;;;;96.82;33.47;;;2.40;95.30;;;;;;5014025;28;20033;-76
2021/01/03 08:26:43;;;;;;;110.00;38.40;;;2.30;95.20;;;;;;5014017;28;20026;-75
2021/01/03 08:29:35;;;;;;;90.40;32.58;;;2.20;95.20;;;;;;5013906;28;20097;-77
2021/01/03 08:32:08;;;;;;;103.63;33.60;;;2.20;95.30;;;;;;5011521;28;20030;-83
2021/01/03 08:34:34;;;;;;;;;;;2.10;95.20;;;;;;4995413;28;20023;-79
2021/01/03 08:37:10;;;;;;;76.55;27.77;;;2.10;95.40;;;;;;4994656;28;19905;-80
2021/01/03 08:39:36;;;;;;;107.00;34.80;;;2.10;95.30;;;;;;4994623;28;20472;-80
2021/01/03 08:42:08;;;;;;;91.13;33.20;;;2.00;95.40;;;;;;4995226;28;20033;-80
2021/01/03 08:44:41;;;;;;;93.03;31.80;;;2.00;95.70;;;;;;4994600;28;20081;-77
2021/01/03 08:47:20;;;;;;;89.90;32.40;;;2.00;95.50;;;;;;4994357;28;20822;-77
2021/01/03 08:49:46;;;;;;;75.97;29.52;;;1.90;95.50;;;;;;4994033;28;20053;-76
2021/01/03 08:52:23;;;;;;;81.97;29.70;;;2.00;95.70;;;;;;4992024;28;20062;-77
2021/01/03 08:54:51;;;;;;;72.10;28.55;;;2.10;96.00;;;;;;4992621;28;20814;-76
2021/01/03 08:57:18;;;;;;;98.70;32.25;;;2.10;96.00;;;;;;4993604;28;20030;-77
2021/01/03 08:59:50;;;;;;;103.30;34.63;;;2.10;95.80;;;;;;4992974;28;20426;-77
2021/01/03 09:02:21;;;;;;;87.28;32.33;;;2.10;95.60;;;;;;4991837;28;20365;-87
2021/01/03 09:04:48;;;;;;;98.22;32.75;;;2.10;95.50;;;;;;4992849;28;20081;-82
2021/01/03 09:07:15;;;;;;;76.32;29.20;;;2.10;95.80;;;;;;4994059;28;20027;-78
2021/01/03 09:09:48;;;;;;;144.15;44.45;;;2.10;96.00;;;;;;4992827;28;20027;-77
2021/01/03 09:12:15;;;;;;;79.20;30.17;;;2.20;96.10;;;;;;4993238;28;20092;-77
2021/01/03 09:14:51;;;;;;;62.55;27.40;;;2.30;96.10;;;;;;4993512;28;20381;-79
2021/01/03 09:17:28;;;;;;;47.72;21.90;;;2.30;96.10;;;;;;4993669;28;20034;-81
2021/01/03 09:20:00;;;;;;;45.10;22.75;;;2.30;95.90;;;;;;4993959;28;20114;-81
2021/01/03 09:22:35;;;;;;;47.45;22.13;;;2.40;96.10;;;;;;4992869;28;20045;-81
2021/01/03 09:25:04;;;;;;;46.20;22.52;;;2.50;96.10;;;;;;4992878;28;20351;-80
2021/01/03 09:27:31;;;;;;;38.17;20.58;;;2.60;96.20;;;;;;4993400;28;20101;-81
2021/01/03 09:30:31;;;;;;;41.72;21.35;;;2.60;96.10;;;;;;4992018;28;20084;-81
2021/01/03 09:33:19;;;;;;;39.40;19.98;;;2.70;95.90;;;;;;4950125;28;20034;-82
2021/01/03 09:35:59;;;;;;;55.50;24.52;;;2.70;95.70;;;;;;4993221;28;20530;-81
2021/01/03 09:38:40;;;;;;;52.53;27.55;;;2.70;96.10;;;;;;5005217;28;20042;-80
2021/01/03 09:41:24;;;;;;;54.83;27.50;;;2.80;96.20;;;;;;5008938;28;20030;-80
2021/01/03 09:44:13;;;;;;;69.78;31.80;;;2.90;96.30;;;;;;4997535;28;20702;-80
2021/01/03 09:47:06;;;;;;;95.90;35.38;;;2.90;96.20;;;;;;4965496;28;20070;-80
2021/01/03 09:49:44;;;;;;;71.72;32.13;;;3.00;96.00;;;;;;4993756;28;20057;-80
2021/01/03 09:52:18;;;;;;;75.28;36.63;;;3.00;96.00;;;;;;4991742;28;20038;-83
2021/01/03 09:55:12;;;;;;;82.15;37.00;;;3.00;96.00;;;;;;4993831;28;20042;-80
2021/01/03 09:57:54;;;;;;;72.95;32.00;;;3.00;95.90;;;;;;4992433;28;20399;-79
2021/01/03 10:00:43;;;;;;;65.05;32.63;;;3.10;95.80;;;;;;4990287;28;20030;-80
2021/01/03 10:03:15;;;;;;;67.40;32.60;;;3.10;95.80;;;;;;4991518;28;20049;-82
2021/01/03 10:05:41;;;;;;;59.93;29.43;;;3.10;95.60;;;;;;4993286;28;20372;-81
2021/01/03 10:08:14;;;;;;;57.53;28.23;;;3.10;95.80;;;;;;4993330;28;20258;-80
2021/01/03 10:10:53;;;;;;;52.60;26.65;;;3.10;95.90;;;;;;4995016;28;20483;-81
2021/01/03 10:13:21;;;;;;;47.10;27.13;;;3.20;96.10;;;;;;4992723;28;20102;-84
2021/01/03 10:15:49;;;;;;;50.20;27.38;;;3.30;96.30;;;;;;4991972;28;20089;-81
2021/01/03 10:18:28;;;;;;;45.88;24.90;;;3.50;96.30;;;;;;4991859;28;20027;-80
2021/01/03 10:20:55;;;;;;;52.05;27.42;;;3.60;96.40;;;;;;4991759;28;20030;-80
2021/01/03 10:23:35;;;;;;;49.72;25.88;;;3.70;96.00;;;;;;4992284;28;20022;-79
2021/01/03 10:26:04;;;;;;;47.90;27.73;;;3.80;96.00;;;;;;4990894;28;20030;-79
2021/01/03 10:28:30;;;;;;;52.60;27.23;;;3.90;95.80;;;;;;4991634;28;20081;-80
2021/01/03 10:30:56;;;;;;;58.42;30.95;;;4.00;95.40;;;;;;4991232;28;20552;-78
2021/01/03 10:33:22;;;;;;;61.92;31.17;;;3.90;95.30;;;;;;4991000;28;20097;-80
2021/01/03 10:35:48;;;;;;;62.88;30.90;;;3.90;94.80;;;;;;4990756;28;20433;-80
2021/01/03 10:38:14;;;;;;;73.95;33.17;;;3.80;94.50;;;;;;4989641;28;20113;-76
2021/01/03 10:40:51;;;;;;;59.03;32.00;;;3.70;94.10;;;;;;4989642;28;20129;-79
2021/01/03 10:43:16;;;;;;;54.25;29.35;;;3.50;93.90;;;;;;4991611;28;20115;-78
2021/01/03 10:46:05;;;;;;;57.13;30.80;;;3.40;93.90;;;;;;4991283;28;20125;-78
2021/01/03 10:51:43;;;;;;;56.63;29.70;;;3.20;94.30;;;;;;4954891;28;20031;-78
2021/01/03 10:54:13;;;;;;;50.75;27.55;;;3.10;94.30;;;;;;4992806;28;20028;-78
2021/01/03 10:56:38;;;;;;;56.10;29.95;;;3.10;94.50;;;;;;4991609;28;20377;-78
2021/01/03 10:59:06;;;;;;;50.38;27.83;;;3.10;94.50;;;;;;4991514;28;20019;-77
2021/01/03 11:01:33;;;;;;;52.78;27.42;;;3.00;94.80;;;;;;4991458;28;20054;-77
2021/01/03 11:03:58;;;;;;;46.42;25.98;;;3.00;94.70;;;;;;4991574;28;20088;-78
2021/01/03 11:06:33;;;;;;;46.72;25.83;;;3.00;94.70;;;;;;5008138;28;20037;-78
2021/01/03 11:08:59;;;;;;;50.90;26.63;;;3.00;94.70;;;;;;5009460;28;20057;-77
2021/01/03 11:11:25;;;;;;;51.70;27.63;;;3.00;94.70;;;;;;5011139;28;20060;-78
2021/01/03 11:13:50;;;;;;;49.08;26.13;;;3.00;94.80;;;;;;5014606;28;20084;-78
2021/01/03 11:16:16;;;;;;;43.78;23.92;;;2.90;94.80;;;;;;5014574;28;20384;-78
2021/01/03 11:18:41;;;;;;;52.13;26.25;;;3.00;95.00;;;;;;5014678;28;20033;-78
2021/01/03 11:21:13;;;;;;;42.72;23.52;;;3.00;94.90;;;;;;5015683;28;20033;-77
2021/01/03 11:23:39;;;;;;;45.85;21.67;;;3.00;95.10;;;;;;5015483;28;20029;-76
2021/01/03 11:26:05;;;;;;;46.53;23.70;;;3.00;95.10;;;;;;5016090;28;20049;-77
2021/01/03 11:28:31;;;;;;;38.85;21.50;;;3.00;95.20;;;;;;5014993;28;20022;-81
2021/01/03 11:30:57;;;;;;;39.38;23.38;;;3.10;95.40;;;;;;5016443;28;20407;-81
2021/01/03 11:33:22;;;;;;;45.28;25.15;;;3.10;95.20;;;;;;5014788;28;20122;-80
2021/01/03 11:35:48;;;;;;;46.03;24.80;;;3.10;95.10;;;;;;5014563;28;20029;-81
2021/01/03 11:38:14;;;;;;;45.20;24.90;;;3.10;95.00;;;;;;5018910;28;20361;-81
2021/01/03 11:40:40;;;;;;;41.60;23.42;;;3.20;95.30;;;;;;5014621;28;20026;-80
2021/01/03 11:43:05;;;;;;;41.53;22.92;;;3.20;95.40;;;;;;5014552;28;20026;-81
2021/01/03 11:45:31;;;;;;;36.08;20.70;;;3.30;95.60;;;;;;5014403;28;20049;-81
2021/01/03 11:47:57;;;;;;;36.97;19.80;;;3.40;95.50;;;;;;5014623;28;20498;-80
2021/01/03 11:50:24;;;;;;;35.72;18.73;;;3.40;95.50;;;;;;5014905;28;20018;-80
2021/01/03 11:52:50;;;;;;;33.05;19.02;;;3.40;95.40;;;;;;5014850;28;20029;-81
2021/01/03 11:55:17;;;;;;;31.95;18.65;;;3.40;95.00;;;;;;5015137;28;20041;-80
2021/01/03 11:57:48;;;;;;;38.58;20.38;;;3.40;94.70;;;;;;5015687;28;20369;-82
2021/01/03 12:00:16;;;;;;;44.97;21.75;;;3.30;94.70;;;;;;5016902;28;20379;-81
2021/01/03 12:02:42;;;;;;;62.72;27.00;;;3.30;94.60;;;;;;5016083;28;20117;-81
2021/01/03 12:05:13;;;;;;;56.63;25.48;;;3.20;94.60;;;;;;5016446;28;20025;-80
2021/01/03 12:07:39;;;;;;;53.10;25.52;;;3.20;94.90;;;;;;5016211;28;20033;-80
2021/01/03 12:10:05;;;;;;;64.93;25.65;;;3.20;95.00;;;;;;5014238;28;20117;-79
2021/01/03 12:12:31;;;;;;;41.95;21.50;;;3.20;94.80;;;;;;5014229;28;20018;-80
2021/01/03 12:14:57;;;;;;;51.72;22.65;;;3.20;94.90;;;;;;5014465;28;20045;-80
2021/01/03 12:17:23;;;;;;;62.25;28.50;;;3.20;94.70;;;;;;5014021;28;20033;-81
2021/01/03 12:19:50;;;;;;;49.90;22.20;;;3.20;94.80;;;;;;5014712;28;20491;-80
2021/01/03 12:22:16;;;;;;;46.55;21.83;;;3.10;94.70;;;;;;5013514;28;20041;-81
2021/01/03 12:24:42;;;;;;;38.20;20.42;;;3.10;94.40;;;;;;5013811;28;20495;-80
2021/01/03 12:27:14;;;;;;;37.75;20.05;;;3.00;94.20;;;;;;5013930;28;20022;-82
2021/01/03 12:29:40;;;;;;;36.63;19.63;;;3.00;94.40;;;;;;5014563;28;20090;-81
2021/01/03 12:32:11;;;;;;;45.22;22.45;;;2.90;94.60;;;;;;5015525;28;20033;-81
2021/01/03 12:34:37;;;;;;;33.22;17.33;;;2.90;94.60;;;;;;5013739;28;20030;-82
2021/01/03 12:37:11;;;;;;;36.47;18.55;;;2.90;94.50;;;;;;5016054;28;20076;-82
2021/01/03 12:39:39;;;;;;;40.38;19.92;;;2.80;94.30;;;;;;5013302;28;20028;-80
2021/01/03 12:42:06;;;;;;;32.78;17.63;;;2.80;94.20;;;;;;5013273;28;20044;-80
2021/01/03 12:44:31;;;;;;;30.15;16.90;;;2.70;94.50;;;;;;5014031;28;20030;-82
2021/01/03 12:46:59;;;;;;;30.00;17.02;;;2.70;94.40;;;;;;5013676;28;20064;-81
2021/01/03 12:49:26;;;;;;;31.40;17.52;;;2.70;94.50;;;;;;5014343;28;20088;-79
2021/01/03 12:51:52;;;;;;;31.75;16.73;;;2.70;94.40;;;;;;5014145;28;20029;-80
2021/01/03 12:54:19;;;;;;;31.50;17.00;;;2.60;94.50;;;;;;5014736;28;20018;-81
2021/01/03 12:56:45;;;;;;;40.65;19.50;;;2.60;94.60;;;;;;5014532;28;20026;-82
2021/01/03 12:59:10;;;;;;;30.70;17.08;;;2.60;94.60;;;;;;5013788;28;20060;-80
2021/01/03 13:01:38;;;;;;;35.03;17.55;;;2.60;94.70;;;;;;5015100;28;20021;-82